Česky Dansk Deutsch English Español Suomi Français Magyar Italiano Nederlands norsk Polski Português svenska Türkçe

 

Het Weer

Quimper (Frankrijk)

14:00, 23 augustus 2016 (GMT)

NWNNE
WE
SWSSE
Home            
Quimper Lanveoc Poulmic Brest Lann Bihoue Landivisiau Morlaix / Ploujean Lannion / Servel Saint-Brieuc St-Nazaire Dinard Rennes Guernsey Airport Jersey Airport Nantes Alderney / Channel Island Culdrose La Roche-Sur-Yon Plymouth Scilly, Saint Mary'S Cherbourg / Maupertus Plymouth / Roborough Angers Saint Mawgan

Om een weerknop op uw website of weblog te plaatsen, copieer onderstaande code en plak die in uw pagina. In het eerste vakje staat HTML-code, in het tweede vakje UBB-code.


Add to Google

Details

Wind speed:2 bf, 5 kn, 2.6 m/s, 5.8 miles/h, 9.3 km/h
Wind direction:ESE, 110° - SSW, 200°
Visibility:Greater than 10000 m, 10 km, 32800 ft, 6.2 miles
Clouds:CAVOC
Temperature:27°C, 81°F
Gefühlte Temperatur:28°C, 82°F
Dew-point:16°C, 61°F
Atmospheric pressure:1019 hPa, 764.3 mmHg, 30.09 inHg, 1.006 atm
Relative humidity:51.0 %
METAR:LFRQ 231400Z AUTO 16005KT 110V200 CAVOK 27/16 Q1019 NOSIG

Snelkoppelingen

Actuele weersinformatie van de hele wereld. Voeg locaties toe met het plus (+) symbool. Deze snelkoppelingen kunnen worden toegevoegd aan Google.

Lid van de Technetium groep

website free tracking
StatCounter NetStat W3C Validator

24-11-2020 07:04:09
astro.technetium.be money.technetium.be phote.technetium.be tafeltennistafel.technetium.be www.ligfiets.net